sensor_id;sensor_type;location;lat;lon;timestamp;P1;durP1;ratioP1;P2;durP2;ratioP2
19861;SDS011;10093;48.148;8.542;2023-09-30T00:00:25;10.90;;;3.72;;
19861;SDS011;10093;48.148;8.542;2023-09-30T00:02:51;11.75;;;4.15;;
19861;SDS011;10093;48.148;8.542;2023-09-30T00:05:17;12.13;;;4.07;;
19861;SDS011;10093;48.148;8.542;2023-09-30T00:07:45;10.38;;;3.60;;
19861;SDS011;10093;48.148;8.542;2023-09-30T00:10:11;11.02;;;3.90;;
19861;SDS011;10093;48.148;8.542;2023-09-30T00:12:36;11.07;;;3.80;;
19861;SDS011;10093;48.148;8.542;2023-09-30T00:15:03;10.65;;;3.70;;
19861;SDS011;10093;48.148;8.542;2023-09-30T00:17:31;9.23;;;3.50;;
19861;SDS011;10093;48.148;8.542;2023-09-30T00:19:57;9.05;;;3.50;;
19861;SDS011;10093;48.148;8.542;2023-09-30T00:22:24;10.02;;;3.35;;
19861;SDS011;10093;48.148;8.542;2023-09-30T00:24:49;9.05;;;3.15;;
19861;SDS011;10093;48.148;8.542;2023-09-30T00:27:15;9.50;;;3.45;;
19861;SDS011;10093;48.148;8.542;2023-09-30T00:29:41;7.15;;;3.08;;
19861;SDS011;10093;48.148;8.542;2023-09-30T00:32:07;8.68;;;3.05;;
19861;SDS011;10093;48.148;8.542;2023-09-30T00:34:35;9.88;;;3.53;;
19861;SDS011;10093;48.148;8.542;2023-09-30T00:37:01;9.20;;;3.38;;
19861;SDS011;10093;48.148;8.542;2023-09-30T00:39:27;8.05;;;3.35;;
19861;SDS011;10093;48.148;8.542;2023-09-30T00:41:56;8.88;;;3.03;;
19861;SDS011;10093;48.148;8.542;2023-09-30T00:44:23;10.70;;;3.35;;
19861;SDS011;10093;48.148;8.542;2023-09-30T00:46:50;8.63;;;3.60;;
19861;SDS011;10093;48.148;8.542;2023-09-30T00:49:15;9.48;;;3.20;;
19861;SDS011;10093;48.148;8.542;2023-09-30T00:51:43;8.65;;;3.55;;
19861;SDS011;10093;48.148;8.542;2023-09-30T00:54:10;8.02;;;3.40;;
19861;SDS011;10093;48.148;8.542;2023-09-30T00:56:35;8.88;;;3.17;;
19861;SDS011;10093;48.148;8.542;2023-09-30T00:59:08;11.82;;;3.78;;
19861;SDS011;10093;48.148;8.542;2023-09-30T01:01:33;10.85;;;3.97;;
19861;SDS011;10093;48.148;8.542;2023-09-30T01:04:00;10.98;;;4.05;;
19861;SDS011;10093;48.148;8.542;2023-09-30T01:06:26;13.43;;;3.63;;
19861;SDS011;10093;48.148;8.542;2023-09-30T01:08:52;8.43;;;3.55;;
19861;SDS011;10093;48.148;8.542;2023-09-30T01:11:17;9.23;;;3.50;;
19861;SDS011;10093;48.148;8.542;2023-09-30T01:13:43;10.32;;;4.00;;
19861;SDS011;10093;48.148;8.542;2023-09-30T01:16:10;9.07;;;3.42;;
19861;SDS011;10093;48.148;8.542;2023-09-30T01:18:36;8.65;;;3.58;;
19861;SDS011;10093;48.148;8.542;2023-09-30T01:21:04;10.82;;;3.80;;
19861;SDS011;10093;48.148;8.542;2023-09-30T01:23:33;8.05;;;3.35;;
19861;SDS011;10093;48.148;8.542;2023-09-30T01:26:03;8.88;;;3.30;;
19861;SDS011;10093;48.148;8.542;2023-09-30T01:28:34;9.02;;;3.70;;
19861;SDS011;10093;48.148;8.542;2023-09-30T01:30:59;9.40;;;3.53;;
19861;SDS011;10093;48.148;8.542;2023-09-30T01:33:26;11.45;;;3.50;;
19861;SDS011;10093;48.148;8.542;2023-09-30T01:35:52;9.07;;;3.30;;
19861;SDS011;10093;48.148;8.542;2023-09-30T01:38:18;9.20;;;3.55;;
19861;SDS011;10093;48.148;8.542;2023-09-30T01:40:45;10.60;;;3.58;;
19861;SDS011;10093;48.148;8.542;2023-09-30T01:43:11;8.73;;;3.38;;
19861;SDS011;10093;48.148;8.542;2023-09-30T01:45:38;14.50;;;4.05;;
19861;SDS011;10093;48.148;8.542;2023-09-30T01:48:07;8.73;;;3.55;;
19861;SDS011;10093;48.148;8.542;2023-09-30T01:50:39;11.07;;;3.83;;
19861;SDS011;10093;48.148;8.542;2023-09-30T01:53:05;9.88;;;3.58;;
19861;SDS011;10093;48.148;8.542;2023-09-30T01:55:31;11.45;;;3.60;;
19861;SDS011;10093;48.148;8.542;2023-09-30T01:57:58;8.45;;;3.38;;
19861;SDS011;10093;48.148;8.542;2023-09-30T02:00:24;9.32;;;3.35;;
19861;SDS011;10093;48.148;8.542;2023-09-30T02:02:49;9.25;;;3.45;;
19861;SDS011;10093;48.148;8.542;2023-09-30T02:05:15;10.50;;;4.03;;
19861;SDS011;10093;48.148;8.542;2023-09-30T02:07:40;9.88;;;3.33;;
19861;SDS011;10093;48.148;8.542;2023-09-30T02:10:06;8.93;;;3.50;;
19861;SDS011;10093;48.148;8.542;2023-09-30T02:12:32;8.90;;;3.28;;
19861;SDS011;10093;48.148;8.542;2023-09-30T02:14:58;12.05;;;3.45;;
19861;SDS011;10093;48.148;8.542;2023-09-30T02:17:25;8.38;;;3.35;;
19861;SDS011;10093;48.148;8.542;2023-09-30T02:19:50;9.60;;;3.65;;
19861;SDS011;10093;48.148;8.542;2023-09-30T02:22:16;10.18;;;3.70;;
19861;SDS011;10093;48.148;8.542;2023-09-30T02:24:41;10.18;;;3.83;;
19861;SDS011;10093;48.148;8.542;2023-09-30T02:27:07;8.38;;;3.10;;
19861;SDS011;10093;48.148;8.542;2023-09-30T02:29:33;8.27;;;3.03;;
19861;SDS011;10093;48.148;8.542;2023-09-30T02:31:59;13.30;;;3.63;;
19861;SDS011;10093;48.148;8.542;2023-09-30T02:34:24;9.85;;;3.53;;
19861;SDS011;10093;48.148;8.542;2023-09-30T02:36:50;9.52;;;3.15;;
19861;SDS011;10093;48.148;8.542;2023-09-30T02:39:16;10.27;;;3.60;;
19861;SDS011;10093;48.148;8.542;2023-09-30T02:41:42;9.05;;;3.10;;
19861;SDS011;10093;48.148;8.542;2023-09-30T02:44:08;8.70;;;3.55;;
19861;SDS011;10093;48.148;8.542;2023-09-30T02:46:34;9.05;;;3.35;;
19861;SDS011;10093;48.148;8.542;2023-09-30T02:49:03;8.82;;;3.65;;
19861;SDS011;10093;48.148;8.542;2023-09-30T02:51:28;8.05;;;3.38;;
19861;SDS011;10093;48.148;8.542;2023-09-30T02:53:55;8.75;;;3.15;;
19861;SDS011;10093;48.148;8.542;2023-09-30T02:56:21;8.45;;;3.05;;
19861;SDS011;10093;48.148;8.542;2023-09-30T02:58:49;8.05;;;3.38;;
19861;SDS011;10093;48.148;8.542;2023-09-30T03:01:16;8.05;;;3.28;;
19861;SDS011;10093;48.148;8.542;2023-09-30T03:03:42;9.52;;;3.53;;
19861;SDS011;10093;48.148;8.542;2023-09-30T03:06:09;11.45;;;3.55;;
19861;SDS011;10093;48.148;8.542;2023-09-30T03:08:35;9.55;;;3.40;;
19861;SDS011;10093;48.148;8.542;2023-09-30T03:11:01;8.18;;;3.22;;
19861;SDS011;10093;48.148;8.542;2023-09-30T03:13:27;9.23;;;3.10;;
19861;SDS011;10093;48.148;8.542;2023-09-30T03:15:55;7.40;;;3.10;;
19861;SDS011;10093;48.148;8.542;2023-09-30T03:18:22;9.30;;;3.30;;
19861;SDS011;10093;48.148;8.542;2023-09-30T03:20:51;8.32;;;3.20;;
19861;SDS011;10093;48.148;8.542;2023-09-30T03:23:25;7.55;;;2.75;;
19861;SDS011;10093;48.148;8.542;2023-09-30T03:25:58;6.85;;;2.78;;
19861;SDS011;10093;48.148;8.542;2023-09-30T03:28:25;9.85;;;3.35;;
19861;SDS011;10093;48.148;8.542;2023-09-30T03:30:51;8.60;;;3.05;;
19861;SDS011;10093;48.148;8.542;2023-09-30T03:33:17;7.60;;;3.28;;
19861;SDS011;10093;48.148;8.542;2023-09-30T03:35:43;7.10;;;2.95;;
19861;SDS011;10093;48.148;8.542;2023-09-30T03:38:09;9.38;;;2.85;;
19861;SDS011;10093;48.148;8.542;2023-09-30T03:40:36;9.02;;;2.50;;
19861;SDS011;10093;48.148;8.542;2023-09-30T03:43:03;7.85;;;2.97;;
19861;SDS011;10093;48.148;8.542;2023-09-30T03:45:32;8.73;;;3.17;;
19861;SDS011;10093;48.148;8.542;2023-09-30T03:47:58;7.90;;;3.22;;
19861;SDS011;10093;48.148;8.542;2023-09-30T03:50:23;10.55;;;3.28;;
19861;SDS011;10093;48.148;8.542;2023-09-30T03:52:49;7.70;;;3.20;;
19861;SDS011;10093;48.148;8.542;2023-09-30T03:55:16;7.93;;;3.40;;
19861;SDS011;10093;48.148;8.542;2023-09-30T03:57:46;6.53;;;2.92;;
19861;SDS011;10093;48.148;8.542;2023-09-30T04:00:13;6.25;;;2.92;;
19861;SDS011;10093;48.148;8.542;2023-09-30T04:02:41;8.05;;;3.05;;
19861;SDS011;10093;48.148;8.542;2023-09-30T04:05:07;10.98;;;3.53;;
19861;SDS011;10093;48.148;8.542;2023-09-30T04:07:36;6.95;;;2.88;;
19861;SDS011;10093;48.148;8.542;2023-09-30T04:10:02;8.55;;;3.20;;
19861;SDS011;10093;48.148;8.542;2023-09-30T04:12:29;8.73;;;3.17;;
19861;SDS011;10093;48.148;8.542;2023-09-30T04:14:57;9.18;;;3.15;;
19861;SDS011;10093;48.148;8.542;2023-09-30T04:17:23;8.13;;;3.78;;
19861;SDS011;10093;48.148;8.542;2023-09-30T04:19:49;8.70;;;3.40;;
19861;SDS011;10093;48.148;8.542;2023-09-30T04:22:16;8.70;;;2.70;;
19861;SDS011;10093;48.148;8.542;2023-09-30T04:24:42;8.85;;;3.10;;
19861;SDS011;10093;48.148;8.542;2023-09-30T04:27:08;10.07;;;2.95;;
19861;SDS011;10093;48.148;8.542;2023-09-30T04:29:33;7.03;;;2.65;;
19861;SDS011;10093;48.148;8.542;2023-09-30T04:31:59;9.93;;;2.90;;
19861;SDS011;10093;48.148;8.542;2023-09-30T04:34:25;9.73;;;3.10;;
19861;SDS011;10093;48.148;8.542;2023-09-30T04:36:53;10.23;;;3.58;;
19861;SDS011;10093;48.148;8.542;2023-09-30T04:39:19;11.23;;;3.75;;
19861;SDS011;10093;48.148;8.542;2023-09-30T04:41:44;13.07;;;5.10;;
19861;SDS011;10093;48.148;8.542;2023-09-30T04:44:11;9.15;;;3.83;;
19861;SDS011;10093;48.148;8.542;2023-09-30T04:46:37;11.73;;;3.70;;
19861;SDS011;10093;48.148;8.542;2023-09-30T04:49:10;10.85;;;4.00;;
19861;SDS011;10093;48.148;8.542;2023-09-30T04:51:39;9.98;;;3.58;;
19861;SDS011;10093;48.148;8.542;2023-09-30T04:54:05;6.57;;;2.60;;
19861;SDS011;10093;48.148;8.542;2023-09-30T04:56:33;7.40;;;2.83;;
19861;SDS011;10093;48.148;8.542;2023-09-30T04:59:00;8.38;;;3.45;;
19861;SDS011;10093;48.148;8.542;2023-09-30T05:01:26;10.10;;;3.08;;
19861;SDS011;10093;48.148;8.542;2023-09-30T05:03:51;7.53;;;2.88;;
19861;SDS011;10093;48.148;8.542;2023-09-30T05:06:18;8.75;;;3.45;;
19861;SDS011;10093;48.148;8.542;2023-09-30T05:08:44;9.13;;;3.47;;
19861;SDS011;10093;48.148;8.542;2023-09-30T05:11:09;10.82;;;3.95;;
19861;SDS011;10093;48.148;8.542;2023-09-30T05:13:35;12.00;;;4.00;;
19861;SDS011;10093;48.148;8.542;2023-09-30T05:16:01;6.95;;;3.28;;
19861;SDS011;10093;48.148;8.542;2023-09-30T05:18:28;8.23;;;3.65;;
19861;SDS011;10093;48.148;8.542;2023-09-30T05:20:54;10.68;;;4.00;;
19861;SDS011;10093;48.148;8.542;2023-09-30T05:23:20;7.45;;;3.60;;
19861;SDS011;10093;48.148;8.542;2023-09-30T05:25:46;10.43;;;3.83;;
19861;SDS011;10093;48.148;8.542;2023-09-30T05:28:11;8.38;;;3.17;;
19861;SDS011;10093;48.148;8.542;2023-09-30T05:30:38;7.82;;;3.13;;
19861;SDS011;10093;48.148;8.542;2023-09-30T05:33:05;8.18;;;3.20;;
19861;SDS011;10093;48.148;8.542;2023-09-30T05:35:31;8.57;;;3.30;;
19861;SDS011;10093;48.148;8.542;2023-09-30T05:37:57;8.35;;;3.20;;
19861;SDS011;10093;48.148;8.542;2023-09-30T05:40:23;8.98;;;3.33;;
19861;SDS011;10093;48.148;8.542;2023-09-30T05:42:55;9.35;;;3.88;;
19861;SDS011;10093;48.148;8.542;2023-09-30T05:45:25;9.25;;;3.40;;
19861;SDS011;10093;48.148;8.542;2023-09-30T05:47:52;7.53;;;3.60;;
19861;SDS011;10093;48.148;8.542;2023-09-30T05:50:20;10.00;;;3.72;;
19861;SDS011;10093;48.148;8.542;2023-09-30T05:52:54;10.17;;;3.40;;
19861;SDS011;10093;48.148;8.542;2023-09-30T05:55:20;11.48;;;3.35;;
19861;SDS011;10093;48.148;8.542;2023-09-30T05:57:50;8.88;;;3.20;;
19861;SDS011;10093;48.148;8.542;2023-09-30T06:00:19;9.25;;;3.28;;
19861;SDS011;10093;48.148;8.542;2023-09-30T06:02:49;6.85;;;2.90;;
19861;SDS011;10093;48.148;8.542;2023-09-30T06:05:16;7.43;;;3.10;;
19861;SDS011;10093;48.148;8.542;2023-09-30T06:07:43;8.07;;;3.30;;
19861;SDS011;10093;48.148;8.542;2023-09-30T06:10:12;8.82;;;3.25;;
19861;SDS011;10093;48.148;8.542;2023-09-30T06:12:41;10.48;;;3.08;;
19861;SDS011;10093;48.148;8.542;2023-09-30T06:15:07;8.07;;;3.05;;
19861;SDS011;10093;48.148;8.542;2023-09-30T06:17:33;9.18;;;2.80;;
19861;SDS011;10093;48.148;8.542;2023-09-30T06:19:58;6.93;;;2.88;;
19861;SDS011;10093;48.148;8.542;2023-09-30T06:22:32;10.43;;;3.42;;
19861;SDS011;10093;48.148;8.542;2023-09-30T06:24:58;6.57;;;3.05;;
19861;SDS011;10093;48.148;8.542;2023-09-30T06:27:23;8.68;;;3.13;;
19861;SDS011;10093;48.148;8.542;2023-09-30T06:29:49;6.63;;;2.80;;
19861;SDS011;10093;48.148;8.542;2023-09-30T06:32:14;7.10;;;2.83;;
19861;SDS011;10093;48.148;8.542;2023-09-30T06:34:40;8.45;;;2.60;;
19861;SDS011;10093;48.148;8.542;2023-09-30T06:37:06;9.10;;;2.88;;
19861;SDS011;10093;48.148;8.542;2023-09-30T06:39:33;6.53;;;2.60;;
19861;SDS011;10093;48.148;8.542;2023-09-30T06:41:59;7.65;;;3.05;;
19861;SDS011;10093;48.148;8.542;2023-09-30T06:44:24;8.02;;;2.95;;
19861;SDS011;10093;48.148;8.542;2023-09-30T06:46:50;5.97;;;2.65;;
19861;SDS011;10093;48.148;8.542;2023-09-30T06:49:16;5.50;;;2.50;;
19861;SDS011;10093;48.148;8.542;2023-09-30T06:51:42;9.65;;;3.20;;
19861;SDS011;10093;48.148;8.542;2023-09-30T06:54:07;9.52;;;2.92;;
19861;SDS011;10093;48.148;8.542;2023-09-30T06:56:33;8.73;;;3.80;;
19861;SDS011;10093;48.148;8.542;2023-09-30T06:58:58;7.28;;;2.85;;
19861;SDS011;10093;48.148;8.542;2023-09-30T07:01:24;9.10;;;3.35;;
19861;SDS011;10093;48.148;8.542;2023-09-30T07:03:50;6.25;;;2.30;;
19861;SDS011;10093;48.148;8.542;2023-09-30T07:06:23;7.95;;;3.00;;
19861;SDS011;10093;48.148;8.542;2023-09-30T07:08:52;9.00;;;3.53;;
19861;SDS011;10093;48.148;8.542;2023-09-30T07:11:26;7.63;;;2.85;;
19861;SDS011;10093;48.148;8.542;2023-09-30T07:13:53;9.90;;;3.38;;
19861;SDS011;10093;48.148;8.542;2023-09-30T07:16:19;6.03;;;2.88;;
19861;SDS011;10093;48.148;8.542;2023-09-30T07:18:44;10.93;;;3.28;;
19861;SDS011;10093;48.148;8.542;2023-09-30T07:21:10;8.68;;;3.50;;
19861;SDS011;10093;48.148;8.542;2023-09-30T07:23:36;6.72;;;3.08;;
19861;SDS011;10093;48.148;8.542;2023-09-30T07:26:02;8.05;;;3.45;;
19861;SDS011;10093;48.148;8.542;2023-09-30T07:28:28;6.30;;;3.40;;
19861;SDS011;10093;48.148;8.542;2023-09-30T07:30:53;11.32;;;4.28;;
19861;SDS011;10093;48.148;8.542;2023-09-30T07:33:20;8.55;;;3.97;;
19861;SDS011;10093;48.148;8.542;2023-09-30T07:35:46;7.88;;;3.72;;
19861;SDS011;10093;48.148;8.542;2023-09-30T07:38:11;9.48;;;4.15;;
19861;SDS011;10093;48.148;8.542;2023-09-30T07:40:37;10.00;;;3.70;;
19861;SDS011;10093;48.148;8.542;2023-09-30T07:43:02;7.90;;;3.30;;
19861;SDS011;10093;48.148;8.542;2023-09-30T07:45:29;6.70;;;3.30;;
19861;SDS011;10093;48.148;8.542;2023-09-30T07:47:54;8.80;;;3.70;;
19861;SDS011;10093;48.148;8.542;2023-09-30T07:50:20;9.00;;;3.95;;
19861;SDS011;10093;48.148;8.542;2023-09-30T07:52:45;6.32;;;3.08;;
19861;SDS011;10093;48.148;8.542;2023-09-30T07:55:11;8.80;;;3.28;;
19861;SDS011;10093;48.148;8.542;2023-09-30T07:57:38;9.60;;;3.67;;
19861;SDS011;10093;48.148;8.542;2023-09-30T08:00:05;9.07;;;3.50;;
19861;SDS011;10093;48.148;8.542;2023-09-30T08:02:34;10.02;;;3.55;;
19861;SDS011;10093;48.148;8.542;2023-09-30T08:04:59;8.48;;;3.53;;
19861;SDS011;10093;48.148;8.542;2023-09-30T08:07:26;6.40;;;3.08;;
19861;SDS011;10093;48.148;8.542;2023-09-30T08:09:52;7.65;;;3.20;;
19861;SDS011;10093;48.148;8.542;2023-09-30T08:12:17;8.75;;;3.35;;
19861;SDS011;10093;48.148;8.542;2023-09-30T08:14:43;8.68;;;3.47;;
19861;SDS011;10093;48.148;8.542;2023-09-30T08:17:11;9.68;;;3.35;;
19861;SDS011;10093;48.148;8.542;2023-09-30T08:19:37;11.68;;;3.42;;
19861;SDS011;10093;48.148;8.542;2023-09-30T08:22:02;10.73;;;3.80;;
19861;SDS011;10093;48.148;8.542;2023-09-30T08:24:31;8.38;;;3.45;;
19861;SDS011;10093;48.148;8.542;2023-09-30T08:26:56;7.60;;;3.28;;
19861;SDS011;10093;48.148;8.542;2023-09-30T08:29:22;8.85;;;3.28;;
19861;SDS011;10093;48.148;8.542;2023-09-30T08:31:48;13.30;;;4.07;;
19861;SDS011;10093;48.148;8.542;2023-09-30T08:34:15;10.85;;;2.92;;
19861;SDS011;10093;48.148;8.542;2023-09-30T08:36:42;9.00;;;3.38;;
19861;SDS011;10093;48.148;8.542;2023-09-30T08:39:07;8.73;;;3.15;;
19861;SDS011;10093;48.148;8.542;2023-09-30T08:41:35;7.78;;;3.08;;
19861;SDS011;10093;48.148;8.542;2023-09-30T08:44:02;9.68;;;2.95;;
19861;SDS011;10093;48.148;8.542;2023-09-30T08:46:32;10.82;;;3.22;;
19861;SDS011;10093;48.148;8.542;2023-09-30T08:49:02;8.52;;;3.00;;
19861;SDS011;10093;48.148;8.542;2023-09-30T08:51:29;12.15;;;3.25;;
19861;SDS011;10093;48.148;8.542;2023-09-30T08:53:55;13.20;;;2.92;;
19861;SDS011;10093;48.148;8.542;2023-09-30T08:56:24;9.23;;;2.78;;
19861;SDS011;10093;48.148;8.542;2023-09-30T08:58:53;7.53;;;3.13;;
19861;SDS011;10093;48.148;8.542;2023-09-30T09:01:24;10.93;;;3.53;;
19861;SDS011;10093;48.148;8.542;2023-09-30T09:03:50;11.32;;;3.00;;
19861;SDS011;10093;48.148;8.542;2023-09-30T09:06:18;8.68;;;2.63;;
19861;SDS011;10093;48.148;8.542;2023-09-30T09:08:47;9.95;;;3.17;;
19861;SDS011;10093;48.148;8.542;2023-09-30T09:11:13;10.60;;;2.90;;
19861;SDS011;10093;48.148;8.542;2023-09-30T09:13:46;6.38;;;3.05;;
19861;SDS011;10093;48.148;8.542;2023-09-30T09:16:15;7.40;;;2.67;;
19861;SDS011;10093;48.148;8.542;2023-09-30T09:18:42;9.85;;;3.17;;
19861;SDS011;10093;48.148;8.542;2023-09-30T09:21:12;7.60;;;3.15;;
19861;SDS011;10093;48.148;8.542;2023-09-30T09:23:41;9.65;;;3.03;;
19861;SDS011;10093;48.148;8.542;2023-09-30T09:26:12;7.85;;;2.95;;
19861;SDS011;10093;48.148;8.542;2023-09-30T09:28:58;8.57;;;3.00;;
19861;SDS011;10093;48.148;8.542;2023-09-30T09:31:26;7.55;;;2.72;;
19861;SDS011;10093;48.148;8.542;2023-09-30T09:33:53;7.03;;;3.05;;
19861;SDS011;10093;48.148;8.542;2023-09-30T09:36:20;8.05;;;3.25;;
19861;SDS011;10093;48.148;8.542;2023-09-30T09:38:49;6.72;;;2.72;;
19861;SDS011;10093;48.148;8.542;2023-09-30T09:41:18;8.18;;;3.65;;
19861;SDS011;10093;48.148;8.542;2023-09-30T09:43:46;10.45;;;3.95;;
19861;SDS011;10093;48.148;8.542;2023-09-30T09:46:14;9.63;;;3.70;;
19861;SDS011;10093;48.148;8.542;2023-09-30T09:48:41;11.52;;;4.18;;
19861;SDS011;10093;48.148;8.542;2023-09-30T09:51:07;9.80;;;4.82;;
19861;SDS011;10093;48.148;8.542;2023-09-30T09:53:36;9.13;;;4.28;;
19861;SDS011;10093;48.148;8.542;2023-09-30T09:56:04;17.02;;;5.65;;
19861;SDS011;10093;48.148;8.542;2023-09-30T09:58:34;12.63;;;6.18;;
19861;SDS011;10093;48.148;8.542;2023-09-30T10:01:03;12.52;;;5.55;;
19861;SDS011;10093;48.148;8.542;2023-09-30T10:03:31;13.55;;;5.88;;
19861;SDS011;10093;48.148;8.542;2023-09-30T10:05:57;14.98;;;5.55;;
19861;SDS011;10093;48.148;8.542;2023-09-30T10:08:27;13.10;;;5.60;;
19861;SDS011;10093;48.148;8.542;2023-09-30T10:11:00;11.32;;;5.18;;
19861;SDS011;10093;48.148;8.542;2023-09-30T10:19:08;15.23;;;6.15;;
19861;SDS011;10093;48.148;8.542;2023-09-30T10:21:37;14.77;;;6.10;;
19861;SDS011;10093;48.148;8.542;2023-09-30T10:30:05;13.88;;;6.00;;
19861;SDS011;10093;48.148;8.542;2023-09-30T10:35:41;13.07;;;6.15;;
19861;SDS011;10093;48.148;8.542;2023-09-30T10:40:52;16.02;;;6.70;;
19861;SDS011;10093;48.148;8.542;2023-09-30T10:43:37;14.90;;;6.57;;
19861;SDS011;10093;48.148;8.542;2023-09-30T10:46:49;12.88;;;6.25;;
19861;SDS011;10093;48.148;8.542;2023-09-30T10:48:51;13.93;;;6.53;;
19861;SDS011;10093;48.148;8.542;2023-09-30T10:51:17;13.43;;;6.00;;
19861;SDS011;10093;48.148;8.542;2023-09-30T10:53:47;16.15;;;7.05;;
19861;SDS011;10093;48.148;8.542;2023-09-30T10:56:16;15.00;;;6.47;;
19861;SDS011;10093;48.148;8.542;2023-09-30T10:58:45;12.88;;;5.75;;
19861;SDS011;10093;48.148;8.542;2023-09-30T11:01:12;14.65;;;6.72;;
19861;SDS011;10093;48.148;8.542;2023-09-30T11:03:39;15.23;;;7.15;;
19861;SDS011;10093;48.148;8.542;2023-09-30T11:06:05;13.20;;;6.05;;
19861;SDS011;10093;48.148;8.542;2023-09-30T11:08:31;12.82;;;6.22;;
19861;SDS011;10093;48.148;8.542;2023-09-30T11:10:58;15.38;;;6.03;;
19861;SDS011;10093;48.148;8.542;2023-09-30T11:13:25;18.77;;;6.75;;
19861;SDS011;10093;48.148;8.542;2023-09-30T11:16:01;13.60;;;6.38;;
19861;SDS011;10093;48.148;8.542;2023-09-30T11:18:28;13.65;;;5.95;;
19861;SDS011;10093;48.148;8.542;2023-09-30T11:21:02;15.77;;;7.40;;
19861;SDS011;10093;48.148;8.542;2023-09-30T11:23:32;13.27;;;6.20;;
19861;SDS011;10093;48.148;8.542;2023-09-30T11:25:58;14.25;;;6.22;;
19861;SDS011;10093;48.148;8.542;2023-09-30T11:28:24;16.25;;;6.75;;
19861;SDS011;10093;48.148;8.542;2023-09-30T11:30:56;15.65;;;6.88;;
19861;SDS011;10093;48.148;8.542;2023-09-30T11:33:23;14.23;;;6.82;;
19861;SDS011;10093;48.148;8.542;2023-09-30T11:35:56;14.23;;;6.75;;
19861;SDS011;10093;48.148;8.542;2023-09-30T11:38:22;14.13;;;6.53;;
19861;SDS011;10093;48.148;8.542;2023-09-30T11:41:04;19.45;;;7.22;;
19861;SDS011;10093;48.148;8.542;2023-09-30T11:43:31;18.17;;;7.18;;
19861;SDS011;10093;48.148;8.542;2023-09-30T11:48:36;14.20;;;6.55;;
19861;SDS011;10093;48.148;8.542;2023-09-30T11:51:03;14.20;;;6.38;;
19861;SDS011;10093;48.148;8.542;2023-09-30T11:53:29;15.57;;;6.70;;
19861;SDS011;10093;48.148;8.542;2023-09-30T11:55:59;16.23;;;6.82;;
19861;SDS011;10093;48.148;8.542;2023-09-30T11:58:25;14.13;;;6.35;;
19861;SDS011;10093;48.148;8.542;2023-09-30T12:00:53;13.80;;;7.22;;
19861;SDS011;10093;48.148;8.542;2023-09-30T12:03:23;14.93;;;7.28;;
19861;SDS011;10093;48.148;8.542;2023-09-30T12:05:49;14.90;;;6.65;;
19861;SDS011;10093;48.148;8.542;2023-09-30T12:08:15;13.15;;;6.85;;
19861;SDS011;10093;48.148;8.542;2023-09-30T12:10:40;17.23;;;6.82;;
19861;SDS011;10093;48.148;8.542;2023-09-30T12:13:06;14.07;;;6.60;;
19861;SDS011;10093;48.148;8.542;2023-09-30T12:15:31;15.68;;;7.63;;
19861;SDS011;10093;48.148;8.542;2023-09-30T12:17:57;14.55;;;6.60;;
19861;SDS011;10093;48.148;8.542;2023-09-30T12:20:23;14.68;;;7.00;;
19861;SDS011;10093;48.148;8.542;2023-09-30T12:22:50;15.30;;;6.97;;
19861;SDS011;10093;48.148;8.542;2023-09-30T12:25:17;13.45;;;6.90;;
19861;SDS011;10093;48.148;8.542;2023-09-30T12:27:46;15.98;;;6.88;;
19861;SDS011;10093;48.148;8.542;2023-09-30T12:30:12;13.05;;;6.05;;
19861;SDS011;10093;48.148;8.542;2023-09-30T12:32:38;15.65;;;6.68;;
19861;SDS011;10093;48.148;8.542;2023-09-30T12:35:05;16.33;;;6.80;;
19861;SDS011;10093;48.148;8.542;2023-09-30T12:37:30;16.42;;;7.30;;
19861;SDS011;10093;48.148;8.542;2023-09-30T12:39:57;17.10;;;7.47;;
19861;SDS011;10093;48.148;8.542;2023-09-30T12:42:23;17.27;;;6.65;;
19861;SDS011;10093;48.148;8.542;2023-09-30T12:44:49;16.52;;;6.95;;
19861;SDS011;10093;48.148;8.542;2023-09-30T12:47:14;16.98;;;7.03;;
19861;SDS011;10093;48.148;8.542;2023-09-30T12:49:40;15.45;;;6.25;;
19861;SDS011;10093;48.148;8.542;2023-09-30T12:52:05;12.73;;;6.72;;
19861;SDS011;10093;48.148;8.542;2023-09-30T12:54:32;15.90;;;6.78;;
19861;SDS011;10093;48.148;8.542;2023-09-30T12:56:58;16.65;;;7.10;;
19861;SDS011;10093;48.148;8.542;2023-09-30T12:59:24;12.80;;;6.22;;
19861;SDS011;10093;48.148;8.542;2023-09-30T13:01:51;15.45;;;7.47;;
19861;SDS011;10093;48.148;8.542;2023-09-30T13:04:17;12.98;;;6.63;;
19861;SDS011;10093;48.148;8.542;2023-09-30T13:06:43;17.75;;;7.10;;
19861;SDS011;10093;48.148;8.542;2023-09-30T13:09:10;16.80;;;7.80;;
19861;SDS011;10093;48.148;8.542;2023-09-30T13:11:36;15.15;;;6.55;;
19861;SDS011;10093;48.148;8.542;2023-09-30T13:14:02;18.98;;;6.82;;
19861;SDS011;10093;48.148;8.542;2023-09-30T13:16:28;16.70;;;7.18;;
19861;SDS011;10093;48.148;8.542;2023-09-30T13:18:54;13.82;;;6.70;;
19861;SDS011;10093;48.148;8.542;2023-09-30T13:21:20;17.73;;;7.13;;
19861;SDS011;10093;48.148;8.542;2023-09-30T13:23:45;16.98;;;7.25;;
19861;SDS011;10093;48.148;8.542;2023-09-30T13:26:11;16.60;;;7.10;;
19861;SDS011;10093;48.148;8.542;2023-09-30T13:28:36;17.08;;;7.55;;
19861;SDS011;10093;48.148;8.542;2023-09-30T13:31:02;13.98;;;6.50;;
19861;SDS011;10093;48.148;8.542;2023-09-30T13:33:28;18.27;;;7.68;;
19861;SDS011;10093;48.148;8.542;2023-09-30T13:35:53;14.25;;;6.93;;
19861;SDS011;10093;48.148;8.542;2023-09-30T13:38:20;15.10;;;6.82;;
19861;SDS011;10093;48.148;8.542;2023-09-30T13:40:46;15.48;;;6.78;;
19861;SDS011;10093;48.148;8.542;2023-09-30T13:43:11;15.93;;;7.60;;
19861;SDS011;10093;48.148;8.542;2023-09-30T13:45:37;15.65;;;7.15;;
19861;SDS011;10093;48.148;8.542;2023-09-30T13:48:03;15.60;;;7.60;;
19861;SDS011;10093;48.148;8.542;2023-09-30T13:50:29;15.70;;;6.88;;
19861;SDS011;10093;48.148;8.542;2023-09-30T13:52:55;15.32;;;7.50;;
19861;SDS011;10093;48.148;8.542;2023-09-30T13:55:21;16.08;;;7.80;;
19861;SDS011;10093;48.148;8.542;2023-09-30T13:57:46;19.50;;;8.85;;
19861;SDS011;10093;48.148;8.542;2023-09-30T14:00:13;17.17;;;7.70;;
19861;SDS011;10093;48.148;8.542;2023-09-30T14:02:39;17.80;;;8.57;;
19861;SDS011;10093;48.148;8.542;2023-09-30T14:05:05;17.02;;;7.75;;
19861;SDS011;10093;48.148;8.542;2023-09-30T14:07:34;16.63;;;7.68;;
19861;SDS011;10093;48.148;8.542;2023-09-30T14:10:00;16.42;;;7.30;;
19861;SDS011;10093;48.148;8.542;2023-09-30T14:12:26;20.70;;;8.05;;
19861;SDS011;10093;48.148;8.542;2023-09-30T14:14:51;17.05;;;7.97;;
19861;SDS011;10093;48.148;8.542;2023-09-30T14:17:17;16.65;;;7.82;;
19861;SDS011;10093;48.148;8.542;2023-09-30T14:19:43;18.83;;;8.20;;
19861;SDS011;10093;48.148;8.542;2023-09-30T14:22:09;15.32;;;7.85;;
19861;SDS011;10093;48.148;8.542;2023-09-30T14:24:35;16.10;;;7.72;;
19861;SDS011;10093;48.148;8.542;2023-09-30T14:27:04;18.10;;;8.23;;
19861;SDS011;10093;48.148;8.542;2023-09-30T14:29:30;16.63;;;8.40;;
19861;SDS011;10093;48.148;8.542;2023-09-30T14:31:57;16.50;;;8.40;;
19861;SDS011;10093;48.148;8.542;2023-09-30T14:34:23;23.25;;;8.70;;
19861;SDS011;10093;48.148;8.542;2023-09-30T14:36:49;16.60;;;8.32;;
19861;SDS011;10093;48.148;8.542;2023-09-30T14:39:15;15.30;;;6.95;;
19861;SDS011;10093;48.148;8.542;2023-09-30T14:41:44;15.90;;;7.40;;
19861;SDS011;10093;48.148;8.542;2023-09-30T14:44:10;18.58;;;7.88;;
19861;SDS011;10093;48.148;8.542;2023-09-30T14:46:37;16.23;;;7.75;;
19861;SDS011;10093;48.148;8.542;2023-09-30T14:49:03;17.55;;;7.38;;
19861;SDS011;10093;48.148;8.542;2023-09-30T14:51:31;18.90;;;8.15;;
19861;SDS011;10093;48.148;8.542;2023-09-30T14:53:57;17.77;;;8.02;;
19861;SDS011;10093;48.148;8.542;2023-09-30T14:56:22;13.77;;;7.07;;
19861;SDS011;10093;48.148;8.542;2023-09-30T14:58:48;17.52;;;8.25;;